sensor_id;sensor_type;location;lat;lon;timestamp;P1;durP1;ratioP1;P2;durP2;ratioP2
4373;SDS011;2201;51.100;6.814;2023-05-19T00:01:50;1.50;;;1.10;;
4373;SDS011;2201;51.100;6.814;2023-05-19T00:04:19;1.50;;;1.00;;
4373;SDS011;2201;51.100;6.814;2023-05-19T00:06:47;1.50;;;1.00;;
4373;SDS011;2201;51.100;6.814;2023-05-19T00:09:17;1.50;;;1.20;;
4373;SDS011;2201;51.100;6.814;2023-05-19T00:11:45;1.50;;;1.10;;
4373;SDS011;2201;51.100;6.814;2023-05-19T00:14:12;1.50;;;1.20;;
4373;SDS011;2201;51.100;6.814;2023-05-19T00:16:39;1.50;;;1.10;;
4373;SDS011;2201;51.100;6.814;2023-05-19T00:19:07;1.50;;;1.10;;
4373;SDS011;2201;51.100;6.814;2023-05-19T00:21:35;1.50;;;1.10;;
4373;SDS011;2201;51.100;6.814;2023-05-19T00:24:03;1.50;;;1.10;;
4373;SDS011;2201;51.100;6.814;2023-05-19T00:26:31;1.50;;;1.10;;
4373;SDS011;2201;51.100;6.814;2023-05-19T00:28:58;1.47;;;1.10;;
4373;SDS011;2201;51.100;6.814;2023-05-19T00:31:25;1.47;;;1.10;;
4373;SDS011;2201;51.100;6.814;2023-05-19T00:33:52;1.50;;;1.17;;
4373;SDS011;2201;51.100;6.814;2023-05-19T00:36:19;1.43;;;1.10;;
4373;SDS011;2201;51.100;6.814;2023-05-19T00:38:45;1.50;;;1.13;;
4373;SDS011;2201;51.100;6.814;2023-05-19T00:41:12;1.50;;;1.20;;
4373;SDS011;2201;51.100;6.814;2023-05-19T00:43:41;1.50;;;1.20;;
4373;SDS011;2201;51.100;6.814;2023-05-19T00:46:08;1.50;;;1.10;;
4373;SDS011;2201;51.100;6.814;2023-05-19T00:48:35;1.50;;;1.10;;
4373;SDS011;2201;51.100;6.814;2023-05-19T00:51:02;1.43;;;1.10;;
4373;SDS011;2201;51.100;6.814;2023-05-19T00:53:30;1.47;;;1.10;;
4373;SDS011;2201;51.100;6.814;2023-05-19T00:55:59;1.50;;;1.10;;
4373;SDS011;2201;51.100;6.814;2023-05-19T00:58:26;1.43;;;1.10;;
4373;SDS011;2201;51.100;6.814;2023-05-19T01:00:56;1.50;;;1.20;;
4373;SDS011;2201;51.100;6.814;2023-05-19T01:03:27;1.47;;;1.10;;
4373;SDS011;2201;51.100;6.814;2023-05-19T01:05:55;1.50;;;1.10;;
4373;SDS011;2201;51.100;6.814;2023-05-19T01:08:21;1.50;;;1.10;;
4373;SDS011;2201;51.100;6.814;2023-05-19T01:10:49;1.40;;;1.10;;
4373;SDS011;2201;51.100;6.814;2023-05-19T01:13:15;1.43;;;1.10;;
4373;SDS011;2201;51.100;6.814;2023-05-19T01:15:51;1.50;;;1.10;;
4373;SDS011;2201;51.100;6.814;2023-05-19T01:18:30;1.50;;;1.10;;
4373;SDS011;2201;51.100;6.814;2023-05-19T01:21:08;1.50;;;1.10;;
4373;SDS011;2201;51.100;6.814;2023-05-19T01:24:01;1.50;;;1.20;;
4373;SDS011;2201;51.100;6.814;2023-05-19T01:26:43;1.40;;;1.10;;
4373;SDS011;2201;51.100;6.814;2023-05-19T01:29:27;1.50;;;1.20;;
4373;SDS011;2201;51.100;6.814;2023-05-19T01:32:07;1.43;;;1.10;;
4373;SDS011;2201;51.100;6.814;2023-05-19T01:34:37;1.50;;;1.20;;
4373;SDS011;2201;51.100;6.814;2023-05-19T01:37:16;1.50;;;1.10;;
4373;SDS011;2201;51.100;6.814;2023-05-19T01:39:48;1.50;;;1.10;;
4373;SDS011;2201;51.100;6.814;2023-05-19T01:42:16;1.50;;;1.10;;
4373;SDS011;2201;51.100;6.814;2023-05-19T01:44:44;1.43;;;1.10;;
4373;SDS011;2201;51.100;6.814;2023-05-19T01:47:13;1.47;;;1.10;;
4373;SDS011;2201;51.100;6.814;2023-05-19T01:49:41;1.50;;;1.10;;
4373;SDS011;2201;51.100;6.814;2023-05-19T01:52:07;1.50;;;1.10;;
4373;SDS011;2201;51.100;6.814;2023-05-19T01:54:34;1.47;;;1.10;;
4373;SDS011;2201;51.100;6.814;2023-05-19T01:57:03;1.50;;;1.20;;
4373;SDS011;2201;51.100;6.814;2023-05-19T01:59:41;1.50;;;1.20;;
4373;SDS011;2201;51.100;6.814;2023-05-19T02:02:21;1.50;;;1.20;;
4373;SDS011;2201;51.100;6.814;2023-05-19T02:04:55;1.50;;;1.10;;
4373;SDS011;2201;51.100;6.814;2023-05-19T02:07:28;1.50;;;1.10;;
4373;SDS011;2201;51.100;6.814;2023-05-19T02:10:03;1.50;;;1.10;;
4373;SDS011;2201;51.100;6.814;2023-05-19T02:12:33;1.50;;;1.20;;
4373;SDS011;2201;51.100;6.814;2023-05-19T02:15:03;1.50;;;1.20;;
4373;SDS011;2201;51.100;6.814;2023-05-19T02:17:33;1.50;;;1.20;;
4373;SDS011;2201;51.100;6.814;2023-05-19T02:20:04;1.50;;;1.20;;
4373;SDS011;2201;51.100;6.814;2023-05-19T02:22:32;1.50;;;1.17;;
4373;SDS011;2201;51.100;6.814;2023-05-19T02:24:59;1.50;;;1.30;;
4373;SDS011;2201;51.100;6.814;2023-05-19T02:27:26;1.50;;;1.10;;
4373;SDS011;2201;51.100;6.814;2023-05-19T02:29:54;1.50;;;1.20;;
4373;SDS011;2201;51.100;6.814;2023-05-19T02:32:21;1.50;;;1.20;;
4373;SDS011;2201;51.100;6.814;2023-05-19T02:34:49;1.50;;;1.20;;
4373;SDS011;2201;51.100;6.814;2023-05-19T02:37:17;1.50;;;1.20;;
4373;SDS011;2201;51.100;6.814;2023-05-19T02:39:48;1.47;;;1.10;;
4373;SDS011;2201;51.100;6.814;2023-05-19T02:42:14;1.50;;;1.20;;
4373;SDS011;2201;51.100;6.814;2023-05-19T02:44:42;1.50;;;1.20;;
4373;SDS011;2201;51.100;6.814;2023-05-19T02:47:09;1.50;;;1.20;;
4373;SDS011;2201;51.100;6.814;2023-05-19T02:49:36;1.50;;;1.20;;
4373;SDS011;2201;51.100;6.814;2023-05-19T02:52:04;1.50;;;1.13;;
4373;SDS011;2201;51.100;6.814;2023-05-19T02:54:32;1.50;;;1.20;;
4373;SDS011;2201;51.100;6.814;2023-05-19T02:56:59;1.50;;;1.20;;
4373;SDS011;2201;51.100;6.814;2023-05-19T02:59:26;1.50;;;1.20;;
4373;SDS011;2201;51.100;6.814;2023-05-19T03:01:54;1.50;;;1.10;;
4373;SDS011;2201;51.100;6.814;2023-05-19T03:04:21;1.47;;;1.20;;
4373;SDS011;2201;51.100;6.814;2023-05-19T03:06:48;1.50;;;1.20;;
4373;SDS011;2201;51.100;6.814;2023-05-19T03:09:16;1.50;;;1.20;;
4373;SDS011;2201;51.100;6.814;2023-05-19T03:11:43;1.50;;;1.17;;
4373;SDS011;2201;51.100;6.814;2023-05-19T03:14:10;1.50;;;1.20;;
4373;SDS011;2201;51.100;6.814;2023-05-19T03:16:37;1.50;;;1.10;;
4373;SDS011;2201;51.100;6.814;2023-05-19T03:19:05;1.50;;;1.30;;
4373;SDS011;2201;51.100;6.814;2023-05-19T03:21:33;1.50;;;1.20;;
4373;SDS011;2201;51.100;6.814;2023-05-19T03:24:00;1.50;;;1.20;;
4373;SDS011;2201;51.100;6.814;2023-05-19T03:26:29;1.50;;;1.20;;
4373;SDS011;2201;51.100;6.814;2023-05-19T03:28:56;1.50;;;1.20;;
4373;SDS011;2201;51.100;6.814;2023-05-19T03:31:23;1.50;;;1.20;;
4373;SDS011;2201;51.100;6.814;2023-05-19T03:33:50;1.50;;;1.20;;
4373;SDS011;2201;51.100;6.814;2023-05-19T03:36:17;1.50;;;1.20;;
4373;SDS011;2201;51.100;6.814;2023-05-19T03:38:46;1.50;;;1.20;;
4373;SDS011;2201;51.100;6.814;2023-05-19T03:41:12;1.50;;;1.20;;
4373;SDS011;2201;51.100;6.814;2023-05-19T03:43:40;1.47;;;1.20;;
4373;SDS011;2201;51.100;6.814;2023-05-19T03:46:07;1.50;;;1.20;;
4373;SDS011;2201;51.100;6.814;2023-05-19T03:48:34;1.50;;;1.20;;
4373;SDS011;2201;51.100;6.814;2023-05-19T03:51:00;1.50;;;1.20;;
4373;SDS011;2201;51.100;6.814;2023-05-19T03:53:28;1.50;;;1.20;;
4373;SDS011;2201;51.100;6.814;2023-05-19T03:55:55;1.50;;;1.20;;
4373;SDS011;2201;51.100;6.814;2023-05-19T03:58:23;1.50;;;1.20;;
4373;SDS011;2201;51.100;6.814;2023-05-19T04:00:52;1.50;;;1.20;;
4373;SDS011;2201;51.100;6.814;2023-05-19T04:03:18;1.50;;;1.20;;
4373;SDS011;2201;51.100;6.814;2023-05-19T04:05:45;1.50;;;1.10;;
4373;SDS011;2201;51.100;6.814;2023-05-19T04:08:12;1.50;;;1.20;;
4373;SDS011;2201;51.100;6.814;2023-05-19T04:10:39;1.50;;;1.20;;
4373;SDS011;2201;51.100;6.814;2023-05-19T04:13:05;1.50;;;1.20;;
4373;SDS011;2201;51.100;6.814;2023-05-19T04:15:32;1.50;;;1.30;;
4373;SDS011;2201;51.100;6.814;2023-05-19T04:18:00;1.50;;;1.20;;
4373;SDS011;2201;51.100;6.814;2023-05-19T04:20:27;1.50;;;1.20;;
4373;SDS011;2201;51.100;6.814;2023-05-19T04:22:54;1.50;;;1.30;;
4373;SDS011;2201;51.100;6.814;2023-05-19T04:25:21;1.50;;;1.20;;
4373;SDS011;2201;51.100;6.814;2023-05-19T04:27:49;1.50;;;1.20;;
4373;SDS011;2201;51.100;6.814;2023-05-19T04:30:17;1.50;;;1.20;;
4373;SDS011;2201;51.100;6.814;2023-05-19T04:32:46;1.50;;;1.20;;
4373;SDS011;2201;51.100;6.814;2023-05-19T04:35:14;1.50;;;1.33;;
4373;SDS011;2201;51.100;6.814;2023-05-19T04:37:41;1.50;;;1.20;;
4373;SDS011;2201;51.100;6.814;2023-05-19T04:40:10;1.50;;;1.20;;
4373;SDS011;2201;51.100;6.814;2023-05-19T04:42:37;1.50;;;1.10;;
4373;SDS011;2201;51.100;6.814;2023-05-19T04:45:07;1.50;;;1.30;;
4373;SDS011;2201;51.100;6.814;2023-05-19T04:47:36;1.50;;;1.20;;
4373;SDS011;2201;51.100;6.814;2023-05-19T04:50:03;1.50;;;1.10;;
4373;SDS011;2201;51.100;6.814;2023-05-19T04:52:32;1.47;;;1.10;;
4373;SDS011;2201;51.100;6.814;2023-05-19T04:54:59;1.50;;;1.30;;
4373;SDS011;2201;51.100;6.814;2023-05-19T04:57:26;1.50;;;1.20;;
4373;SDS011;2201;51.100;6.814;2023-05-19T04:59:52;1.47;;;1.10;;
4373;SDS011;2201;51.100;6.814;2023-05-19T05:02:23;1.50;;;1.20;;
4373;SDS011;2201;51.100;6.814;2023-05-19T05:04:51;1.50;;;1.17;;
4373;SDS011;2201;51.100;6.814;2023-05-19T05:07:18;1.50;;;1.10;;
4373;SDS011;2201;51.100;6.814;2023-05-19T05:09:46;1.50;;;1.10;;
4373;SDS011;2201;51.100;6.814;2023-05-19T05:12:14;1.50;;;1.30;;
4373;SDS011;2201;51.100;6.814;2023-05-19T05:14:42;1.50;;;1.00;;
4373;SDS011;2201;51.100;6.814;2023-05-19T05:17:10;1.50;;;1.10;;
4373;SDS011;2201;51.100;6.814;2023-05-19T05:19:37;1.50;;;1.10;;
4373;SDS011;2201;51.100;6.814;2023-05-19T05:22:05;1.50;;;1.10;;
4373;SDS011;2201;51.100;6.814;2023-05-19T05:24:32;1.50;;;1.00;;
4373;SDS011;2201;51.100;6.814;2023-05-19T05:27:01;1.50;;;1.10;;
4373;SDS011;2201;51.100;6.814;2023-05-19T05:29:28;1.47;;;1.10;;
4373;SDS011;2201;51.100;6.814;2023-05-19T05:31:55;1.47;;;1.00;;
4373;SDS011;2201;51.100;6.814;2023-05-19T05:34:22;1.50;;;1.10;;
4373;SDS011;2201;51.100;6.814;2023-05-19T05:36:51;1.50;;;1.03;;
4373;SDS011;2201;51.100;6.814;2023-05-19T05:39:18;1.50;;;1.10;;
4373;SDS011;2201;51.100;6.814;2023-05-19T05:41:45;1.47;;;1.00;;
4373;SDS011;2201;51.100;6.814;2023-05-19T05:44:13;1.50;;;1.10;;
4373;SDS011;2201;51.100;6.814;2023-05-19T05:46:40;1.50;;;1.03;;
4373;SDS011;2201;51.100;6.814;2023-05-19T05:49:07;1.47;;;1.07;;
4373;SDS011;2201;51.100;6.814;2023-05-19T05:51:39;1.50;;;1.10;;
4373;SDS011;2201;51.100;6.814;2023-05-19T05:54:06;1.50;;;1.10;;
4373;SDS011;2201;51.100;6.814;2023-05-19T05:56:36;1.50;;;1.00;;
4373;SDS011;2201;51.100;6.814;2023-05-19T05:59:05;1.47;;;1.00;;
4373;SDS011;2201;51.100;6.814;2023-05-19T06:01:33;1.50;;;1.00;;
4373;SDS011;2201;51.100;6.814;2023-05-19T06:04:00;1.50;;;1.10;;
4373;SDS011;2201;51.100;6.814;2023-05-19T06:06:27;1.47;;;1.00;;
4373;SDS011;2201;51.100;6.814;2023-05-19T06:08:55;1.50;;;1.10;;
4373;SDS011;2201;51.100;6.814;2023-05-19T06:11:21;1.50;;;1.00;;
4373;SDS011;2201;51.100;6.814;2023-05-19T06:13:49;1.47;;;1.00;;
4373;SDS011;2201;51.100;6.814;2023-05-19T06:16:15;1.50;;;1.00;;
4373;SDS011;2201;51.100;6.814;2023-05-19T06:18:44;1.47;;;1.00;;
4373;SDS011;2201;51.100;6.814;2023-05-19T06:21:13;1.43;;;0.90;;
4373;SDS011;2201;51.100;6.814;2023-05-19T06:23:43;1.50;;;1.00;;
4373;SDS011;2201;51.100;6.814;2023-05-19T06:26:10;1.50;;;0.90;;
4373;SDS011;2201;51.100;6.814;2023-05-19T06:28:37;1.43;;;1.00;;
4373;SDS011;2201;51.100;6.814;2023-05-19T06:31:03;1.47;;;1.00;;
4373;SDS011;2201;51.100;6.814;2023-05-19T06:33:30;1.47;;;1.00;;
4373;SDS011;2201;51.100;6.814;2023-05-19T06:35:58;1.40;;;0.90;;
4373;SDS011;2201;51.100;6.814;2023-05-19T06:38:25;1.47;;;1.00;;
4373;SDS011;2201;51.100;6.814;2023-05-19T06:40:52;1.47;;;1.00;;
4373;SDS011;2201;51.100;6.814;2023-05-19T06:43:19;1.43;;;0.90;;
4373;SDS011;2201;51.100;6.814;2023-05-19T06:45:46;1.47;;;0.90;;
4373;SDS011;2201;51.100;6.814;2023-05-19T06:48:13;1.50;;;0.90;;
4373;SDS011;2201;51.100;6.814;2023-05-19T06:50:39;1.47;;;0.97;;
4373;SDS011;2201;51.100;6.814;2023-05-19T06:53:08;1.47;;;0.97;;
4373;SDS011;2201;51.100;6.814;2023-05-19T06:55:34;1.40;;;0.90;;
4373;SDS011;2201;51.100;6.814;2023-05-19T06:58:01;1.47;;;0.90;;
4373;SDS011;2201;51.100;6.814;2023-05-19T07:00:28;1.50;;;0.90;;
4373;SDS011;2201;51.100;6.814;2023-05-19T07:02:58;1.43;;;0.90;;
4373;SDS011;2201;51.100;6.814;2023-05-19T07:05:25;1.50;;;0.90;;
4373;SDS011;2201;51.100;6.814;2023-05-19T07:07:52;1.50;;;0.90;;
4373;SDS011;2201;51.100;6.814;2023-05-19T07:10:20;1.50;;;0.90;;
4373;SDS011;2201;51.100;6.814;2023-05-19T07:12:47;1.50;;;0.90;;
4373;SDS011;2201;51.100;6.814;2023-05-19T07:15:14;1.47;;;0.90;;
4373;SDS011;2201;51.100;6.814;2023-05-19T07:17:41;1.50;;;0.90;;
4373;SDS011;2201;51.100;6.814;2023-05-19T07:20:08;1.50;;;0.90;;
4373;SDS011;2201;51.100;6.814;2023-05-19T07:22:35;1.47;;;0.90;;
4373;SDS011;2201;51.100;6.814;2023-05-19T07:25:04;1.50;;;0.90;;
4373;SDS011;2201;51.100;6.814;2023-05-19T07:27:32;1.50;;;0.90;;
4373;SDS011;2201;51.100;6.814;2023-05-19T07:30:00;1.50;;;0.90;;
4373;SDS011;2201;51.100;6.814;2023-05-19T07:32:28;1.50;;;0.90;;
4373;SDS011;2201;51.100;6.814;2023-05-19T07:34:54;1.47;;;0.90;;
4373;SDS011;2201;51.100;6.814;2023-05-19T07:37:21;1.50;;;1.10;;
4373;SDS011;2201;51.100;6.814;2023-05-19T07:39:48;1.50;;;0.90;;
4373;SDS011;2201;51.100;6.814;2023-05-19T07:42:15;1.50;;;0.90;;
4373;SDS011;2201;51.100;6.814;2023-05-19T07:44:43;1.47;;;0.90;;
4373;SDS011;2201;51.100;6.814;2023-05-19T07:47:10;1.50;;;0.90;;
4373;SDS011;2201;51.100;6.814;2023-05-19T07:49:37;1.50;;;0.90;;
4373;SDS011;2201;51.100;6.814;2023-05-19T07:52:04;1.50;;;1.00;;
4373;SDS011;2201;51.100;6.814;2023-05-19T07:54:31;1.50;;;0.90;;
4373;SDS011;2201;51.100;6.814;2023-05-19T07:56:58;1.47;;;0.90;;
4373;SDS011;2201;51.100;6.814;2023-05-19T07:59:25;1.47;;;0.90;;
4373;SDS011;2201;51.100;6.814;2023-05-19T08:01:56;1.43;;;0.90;;
4373;SDS011;2201;51.100;6.814;2023-05-19T08:04:38;1.47;;;0.90;;
4373;SDS011;2201;51.100;6.814;2023-05-19T08:07:12;1.47;;;0.90;;
4373;SDS011;2201;51.100;6.814;2023-05-19T08:09:39;1.50;;;0.90;;
4373;SDS011;2201;51.100;6.814;2023-05-19T08:12:06;1.50;;;0.90;;
4373;SDS011;2201;51.100;6.814;2023-05-19T08:14:33;1.50;;;0.90;;
4373;SDS011;2201;51.100;6.814;2023-05-19T08:17:01;1.47;;;1.07;;
4373;SDS011;2201;51.100;6.814;2023-05-19T08:19:28;1.47;;;0.90;;
4373;SDS011;2201;51.100;6.814;2023-05-19T08:21:56;1.47;;;0.90;;
4373;SDS011;2201;51.100;6.814;2023-05-19T08:24:27;1.50;;;0.90;;
4373;SDS011;2201;51.100;6.814;2023-05-19T08:26:54;1.47;;;0.90;;
4373;SDS011;2201;51.100;6.814;2023-05-19T08:29:21;1.47;;;0.90;;
4373;SDS011;2201;51.100;6.814;2023-05-19T08:31:48;1.50;;;0.90;;
4373;SDS011;2201;51.100;6.814;2023-05-19T08:34:18;1.47;;;0.83;;
4373;SDS011;2201;51.100;6.814;2023-05-19T08:39:12;1.43;;;0.90;;
4373;SDS011;2201;51.100;6.814;2023-05-19T08:41:42;1.50;;;0.90;;
4373;SDS011;2201;51.100;6.814;2023-05-19T08:44:23;1.97;;;1.77;;
4373;SDS011;2201;51.100;6.814;2023-05-19T08:47:05;1.43;;;0.90;;
4373;SDS011;2201;51.100;6.814;2023-05-19T08:49:51;1.47;;;0.90;;
4373;SDS011;2201;51.100;6.814;2023-05-19T08:52:26;1.50;;;1.00;;
4373;SDS011;2201;51.100;6.814;2023-05-19T08:55:14;1.40;;;0.80;;
4373;SDS011;2201;51.100;6.814;2023-05-19T08:57:52;1.47;;;0.90;;
4373;SDS011;2201;51.100;6.814;2023-05-19T09:00:22;1.47;;;0.80;;
4373;SDS011;2201;51.100;6.814;2023-05-19T09:02:50;1.47;;;0.80;;
4373;SDS011;2201;51.100;6.814;2023-05-19T09:12:10;1.43;;;0.80;;
4373;SDS011;2201;51.100;6.814;2023-05-19T09:14:38;1.47;;;0.80;;
4373;SDS011;2201;51.100;6.814;2023-05-19T09:17:06;1.47;;;0.80;;
4373;SDS011;2201;51.100;6.814;2023-05-19T09:19:33;1.40;;;0.83;;
4373;SDS011;2201;51.100;6.814;2023-05-19T09:25:01;1.47;;;0.80;;
4373;SDS011;2201;51.100;6.814;2023-05-19T09:27:31;1.47;;;0.90;;
4373;SDS011;2201;51.100;6.814;2023-05-19T09:30:05;1.40;;;0.80;;
4373;SDS011;2201;51.100;6.814;2023-05-19T09:32:34;1.40;;;0.90;;
4373;SDS011;2201;51.100;6.814;2023-05-19T09:38:10;1.50;;;0.80;;
4373;SDS011;2201;51.100;6.814;2023-05-19T09:40:43;1.47;;;0.80;;
4373;SDS011;2201;51.100;6.814;2023-05-19T09:43:12;1.43;;;0.80;;
4373;SDS011;2201;51.100;6.814;2023-05-19T09:45:40;1.50;;;0.80;;
4373;SDS011;2201;51.100;6.814;2023-05-19T09:48:08;1.50;;;1.00;;
4373;SDS011;2201;51.100;6.814;2023-05-19T09:50:35;1.43;;;0.80;;
4373;SDS011;2201;51.100;6.814;2023-05-19T09:53:03;1.50;;;1.20;;
4373;SDS011;2201;51.100;6.814;2023-05-19T09:55:30;1.47;;;0.80;;
4373;SDS011;2201;51.100;6.814;2023-05-19T09:57:59;1.43;;;0.90;;
4373;SDS011;2201;51.100;6.814;2023-05-19T10:03:27;1.43;;;0.83;;
4373;SDS011;2201;51.100;6.814;2023-05-19T10:05:56;1.47;;;0.80;;
4373;SDS011;2201;51.100;6.814;2023-05-19T10:08:26;1.60;;;1.17;;
4373;SDS011;2201;51.100;6.814;2023-05-19T10:10:55;1.40;;;0.90;;
4373;SDS011;2201;51.100;6.814;2023-05-19T10:13:23;1.40;;;0.80;;
4373;SDS011;2201;51.100;6.814;2023-05-19T10:15:54;1.47;;;0.90;;
4373;SDS011;2201;51.100;6.814;2023-05-19T10:18:24;1.43;;;0.80;;
4373;SDS011;2201;51.100;6.814;2023-05-19T10:20:55;1.47;;;0.80;;
4373;SDS011;2201;51.100;6.814;2023-05-19T10:23:25;1.40;;;0.80;;
4373;SDS011;2201;51.100;6.814;2023-05-19T10:25:53;1.40;;;0.80;;
4373;SDS011;2201;51.100;6.814;2023-05-19T10:28:23;1.43;;;0.80;;
4373;SDS011;2201;51.100;6.814;2023-05-19T10:30:57;1.43;;;0.80;;
4373;SDS011;2201;51.100;6.814;2023-05-19T10:33:28;1.47;;;0.80;;
4373;SDS011;2201;51.100;6.814;2023-05-19T10:36:10;1.60;;;1.40;;
4373;SDS011;2201;51.100;6.814;2023-05-19T10:38:52;1.47;;;0.90;;
4373;SDS011;2201;51.100;6.814;2023-05-19T10:41:27;1.47;;;0.80;;
4373;SDS011;2201;51.100;6.814;2023-05-19T10:44:02;1.40;;;0.80;;
4373;SDS011;2201;51.100;6.814;2023-05-19T10:46:39;1.40;;;0.90;;
4373;SDS011;2201;51.100;6.814;2023-05-19T10:49:07;1.43;;;0.90;;
4373;SDS011;2201;51.100;6.814;2023-05-19T10:51:34;1.40;;;0.80;;
4373;SDS011;2201;51.100;6.814;2023-05-19T10:54:03;1.40;;;0.90;;
4373;SDS011;2201;51.100;6.814;2023-05-19T10:56:38;1.43;;;0.80;;
4373;SDS011;2201;51.100;6.814;2023-05-19T11:05:10;1.40;;;0.80;;
4373;SDS011;2201;51.100;6.814;2023-05-19T11:07:40;1.43;;;0.80;;
4373;SDS011;2201;51.100;6.814;2023-05-19T11:10:10;1.50;;;0.80;;
4373;SDS011;2201;51.100;6.814;2023-05-19T11:12:41;1.43;;;0.90;;
4373;SDS011;2201;51.100;6.814;2023-05-19T11:15:10;1.40;;;0.90;;
4373;SDS011;2201;51.100;6.814;2023-05-19T11:17:39;1.47;;;0.80;;
4373;SDS011;2201;51.100;6.814;2023-05-19T11:20:18;1.50;;;0.90;;
4373;SDS011;2201;51.100;6.814;2023-05-19T11:23:24;1.47;;;0.80;;
4373;SDS011;2201;51.100;6.814;2023-05-19T11:25:52;1.50;;;0.90;;
4373;SDS011;2201;51.100;6.814;2023-05-19T11:28:20;1.47;;;0.80;;
4373;SDS011;2201;51.100;6.814;2023-05-19T11:30:50;1.47;;;0.80;;
4373;SDS011;2201;51.100;6.814;2023-05-19T11:33:21;1.43;;;0.90;;
4373;SDS011;2201;51.100;6.814;2023-05-19T11:35:52;1.43;;;0.83;;
4373;SDS011;2201;51.100;6.814;2023-05-19T11:38:24;1.40;;;0.90;;
4373;SDS011;2201;51.100;6.814;2023-05-19T11:40:52;1.40;;;0.80;;
4373;SDS011;2201;51.100;6.814;2023-05-19T11:43:22;1.50;;;0.83;;
4373;SDS011;2201;51.100;6.814;2023-05-19T11:45:52;1.50;;;1.00;;
4373;SDS011;2201;51.100;6.814;2023-05-19T11:48:20;1.43;;;0.90;;
4373;SDS011;2201;51.100;6.814;2023-05-19T11:50:47;1.43;;;0.80;;
4373;SDS011;2201;51.100;6.814;2023-05-19T11:53:16;1.50;;;0.90;;
4373;SDS011;2201;51.100;6.814;2023-05-19T11:55:46;1.50;;;0.80;;
4373;SDS011;2201;51.100;6.814;2023-05-19T11:58:17;1.47;;;0.80;;
4373;SDS011;2201;51.100;6.814;2023-05-19T12:00:53;1.50;;;0.90;;
4373;SDS011;2201;51.100;6.814;2023-05-19T12:03:21;1.47;;;0.80;;
4373;SDS011;2201;51.100;6.814;2023-05-19T12:05:55;1.43;;;0.80;;
4373;SDS011;2201;51.100;6.814;2023-05-19T12:08:22;1.43;;;0.80;;
4373;SDS011;2201;51.100;6.814;2023-05-19T12:11:06;1.47;;;0.80;;
4373;SDS011;2201;51.100;6.814;2023-05-19T12:13:34;1.40;;;0.80;;
4373;SDS011;2201;51.100;6.814;2023-05-19T12:16:02;1.63;;;1.20;;
4373;SDS011;2201;51.100;6.814;2023-05-19T12:18:35;1.43;;;0.80;;
4373;SDS011;2201;51.100;6.814;2023-05-19T12:21:03;1.87;;;1.17;;
4373;SDS011;2201;51.100;6.814;2023-05-19T12:26:46;1.40;;;0.80;;
4373;SDS011;2201;51.100;6.814;2023-05-19T12:29:14;1.43;;;0.87;;
4373;SDS011;2201;51.100;6.814;2023-05-19T12:31:41;1.43;;;0.80;;
4373;SDS011;2201;51.100;6.814;2023-05-19T12:34:13;1.50;;;0.80;;
4373;SDS011;2201;51.100;6.814;2023-05-19T12:36:41;1.40;;;0.80;;
4373;SDS011;2201;51.100;6.814;2023-05-19T12:39:08;1.43;;;0.83;;
4373;SDS011;2201;51.100;6.814;2023-05-19T12:41:35;1.47;;;0.80;;
4373;SDS011;2201;51.100;6.814;2023-05-19T12:44:13;1.47;;;0.80;;
4373;SDS011;2201;51.100;6.814;2023-05-19T12:46:43;1.40;;;0.80;;
4373;SDS011;2201;51.100;6.814;2023-05-19T12:49:19;1.43;;;0.80;;
4373;SDS011;2201;51.100;6.814;2023-05-19T12:51:50;1.47;;;0.80;;
4373;SDS011;2201;51.100;6.814;2023-05-19T12:54:17;1.43;;;0.80;;
4373;SDS011;2201;51.100;6.814;2023-05-19T12:56:49;1.47;;;0.80;;
4373;SDS011;2201;51.100;6.814;2023-05-19T12:59:23;1.40;;;0.80;;
4373;SDS011;2201;51.100;6.814;2023-05-19T13:01:54;1.43;;;0.80;;
4373;SDS011;2201;51.100;6.814;2023-05-19T13:04:22;1.40;;;0.80;;
4373;SDS011;2201;51.100;6.814;2023-05-19T13:06:50;1.43;;;0.80;;
4373;SDS011;2201;51.100;6.814;2023-05-19T13:09:17;1.47;;;0.80;;
4373;SDS011;2201;51.100;6.814;2023-05-19T13:11:45;1.40;;;0.80;;
4373;SDS011;2201;51.100;6.814;2023-05-19T13:14:15;1.47;;;0.80;;
4373;SDS011;2201;51.100;6.814;2023-05-19T13:16:45;1.47;;;0.80;;
4373;SDS011;2201;51.100;6.814;2023-05-19T13:19:13;1.43;;;0.80;;
4373;SDS011;2201;51.100;6.814;2023-05-19T13:21:48;1.40;;;0.80;;
4373;SDS011;2201;51.100;6.814;2023-05-19T13:24:40;1.43;;;0.80;;
4373;SDS011;2201;51.100;6.814;2023-05-19T13:27:07;1.50;;;1.00;;
4373;SDS011;2201;51.100;6.814;2023-05-19T13:29:34;1.40;;;0.80;;
4373;SDS011;2201;51.100;6.814;2023-05-19T13:32:03;1.43;;;0.80;;
4373;SDS011;2201;51.100;6.814;2023-05-19T13:34:31;1.43;;;0.80;;
4373;SDS011;2201;51.100;6.814;2023-05-19T13:37:00;1.40;;;0.80;;
4373;SDS011;2201;51.100;6.814;2023-05-19T13:39:27;1.40;;;0.80;;
4373;SDS011;2201;51.100;6.814;2023-05-19T13:41:54;1.40;;;0.83;;
4373;SDS011;2201;51.100;6.814;2023-05-19T13:44:25;1.40;;;0.80;;
4373;SDS011;2201;51.100;6.814;2023-05-19T13:46:52;1.40;;;0.80;;
4373;SDS011;2201;51.100;6.814;2023-05-19T13:49:21;1.40;;;0.80;;
4373;SDS011;2201;51.100;6.814;2023-05-19T13:51:48;1.47;;;0.80;;
4373;SDS011;2201;51.100;6.814;2023-05-19T13:54:16;1.43;;;0.90;;
4373;SDS011;2201;51.100;6.814;2023-05-19T13:56:43;1.47;;;0.90;;
4373;SDS011;2201;51.100;6.814;2023-05-19T13:59:12;1.47;;;0.80;;
4373;SDS011;2201;51.100;6.814;2023-05-19T14:01:40;1.50;;;0.80;;
4373;SDS011;2201;51.100;6.814;2023-05-19T14:04:07;1.40;;;0.80;;
4373;SDS011;2201;51.100;6.814;2023-05-19T14:06:36;1.47;;;0.80;;
4373;SDS011;2201;51.100;6.814;2023-05-19T14:09:03;1.43;;;0.90;;
4373;SDS011;2201;51.100;6.814;2023-05-19T14:11:31;1.40;;;0.80;;
4373;SDS011;2201;51.100;6.814;2023-05-19T14:13:58;1.43;;;0.80;;
4373;SDS011;2201;51.100;6.814;2023-05-19T14:16:28;1.47;;;0.80;;
4373;SDS011;2201;51.100;6.814;2023-05-19T14:18:56;1.43;;;0.80;;
4373;SDS011;2201;51.100;6.814;2023-05-19T14:21:23;1.40;;;0.83;;
4373;SDS011;2201;51.100;6.814;2023-05-19T14:23:52;1.47;;;0.80;;
4373;SDS011;2201;51.100;6.814;2023-05-19T14:26:20;1.40;;;0.90;;
4373;SDS011;2201;51.100;6.814;2023-05-19T14:28:47;1.40;;;0.80;;
4373;SDS011;2201;51.100;6.814;2023-05-19T14:31:15;1.43;;;0.80;;
4373;SDS011;2201;51.100;6.814;2023-05-19T14:33:42;1.50;;;1.00;;
4373;SDS011;2201;51.100;6.814;2023-05-19T14:36:09;1.40;;;0.80;;
4373;SDS011;2201;51.100;6.814;2023-05-19T14:38:37;1.43;;;0.80;;
4373;SDS011;2201;51.100;6.814;2023-05-19T14:41:05;1.50;;;0.83;;
4373;SDS011;2201;51.100;6.814;2023-05-19T14:43:33;1.43;;;0.80;;
4373;SDS011;2201;51.100;6.814;2023-05-19T14:46:00;1.47;;;0.80;;
4373;SDS011;2201;51.100;6.814;2023-05-19T14:48:27;1.43;;;0.80;;
4373;SDS011;2201;51.100;6.814;2023-05-19T14:50:54;1.77;;;1.00;;
4373;SDS011;2201;51.100;6.814;2023-05-19T14:53:21;1.47;;;0.80;;
4373;SDS011;2201;51.100;6.814;2023-05-19T14:55:48;1.43;;;0.80;;
4373;SDS011;2201;51.100;6.814;2023-05-19T14:58:17;1.43;;;0.80;;
4373;SDS011;2201;51.100;6.814;2023-05-19T15:00:46;1.40;;;0.90;;
4373;SDS011;2201;51.100;6.814;2023-05-19T15:03:13;1.47;;;0.80;;
4373;SDS011;2201;51.100;6.814;2023-05-19T15:05:40;1.43;;;0.80;;
4373;SDS011;2201;51.100;6.814;2023-05-19T15:08:07;1.47;;;0.80;;
4373;SDS011;2201;51.100;6.814;2023-05-19T15:10:35;1.43;;;0.90;;
4373;SDS011;2201;51.100;6.814;2023-05-19T15:13:02;5.90;;;1.20;;
4373;SDS011;2201;51.100;6.814;2023-05-19T15:15:30;1.40;;;0.80;;
4373;SDS011;2201;51.100;6.814;2023-05-19T15:17:58;1.47;;;0.80;;
4373;SDS011;2201;51.100;6.814;2023-05-19T15:20:28;1.40;;;0.90;;
4373;SDS011;2201;51.100;6.814;2023-05-19T15:22:55;1.40;;;0.83;;
4373;SDS011;2201;51.100;6.814;2023-05-19T15:25:22;1.43;;;0.80;;
4373;SDS011;2201;51.100;6.814;2023-05-19T15:27:49;1.47;;;0.80;;
4373;SDS011;2201;51.100;6.814;2023-05-19T15:30:17;1.43;;;0.80;;
4373;SDS011;2201;51.100;6.814;2023-05-19T15:32:45;1.43;;;0.90;;
4373;SDS011;2201;51.100;6.814;2023-05-19T15:35:12;1.50;;;0.80;;
4373;SDS011;2201;51.100;6.814;2023-05-19T15:37:39;1.40;;;0.90;;
4373;SDS011;2201;51.100;6.814;2023-05-19T15:40:07;1.43;;;0.87;;
4373;SDS011;2201;51.100;6.814;2023-05-19T15:42:35;1.47;;;0.80;;
4373;SDS011;2201;51.100;6.814;2023-05-19T15:45:03;1.47;;;0.87;;
4373;SDS011;2201;51.100;6.814;2023-05-19T15:47:33;1.40;;;0.90;;
4373;SDS011;2201;51.100;6.814;2023-05-19T15:50:02;1.40;;;0.90;;
4373;SDS011;2201;51.100;6.814;2023-05-19T15:52:30;1.50;;;0.80;;
4373;SDS011;2201;51.100;6.814;2023-05-19T15:54:57;1.43;;;0.80;;